createdAt,value
2019-04-28T00:01:37.486Z,95.60
2019-04-28T00:04:06.347Z,95.20
2019-04-28T00:06:35.340Z,94.90
2019-04-28T00:09:06.240Z,94.70
2019-04-28T00:11:35.127Z,94.40
2019-04-28T00:14:04.002Z,95.10
2019-04-28T00:16:38.944Z,95.10
2019-04-28T00:19:11.056Z,94.70
2019-04-28T00:21:41.653Z,95.30
2019-04-28T00:24:18.102Z,95.70
2019-04-28T00:26:52.057Z,95.40
2019-04-28T00:29:21.124Z,95.10
2019-04-28T00:31:51.263Z,94.90
2019-04-28T00:34:21.262Z,95.30
2019-04-28T00:36:51.993Z,95.40
2019-04-28T00:39:22.678Z,95.50
2019-04-28T00:41:51.727Z,95.50
2019-04-28T00:44:21.916Z,96.10
2019-04-28T00:46:51.255Z,96.40
2019-04-28T00:49:23.322Z,96.10
2019-04-28T00:51:52.268Z,96.00
2019-04-28T00:54:21.817Z,96.30
2019-04-28T00:56:51.678Z,96.40
2019-04-28T00:59:21.739Z,96.10
2019-04-28T01:01:52.303Z,95.30
2019-04-28T01:04:21.958Z,95.40
2019-04-28T01:06:52.028Z,95.40
2019-04-28T01:09:21.982Z,94.10
2019-04-28T01:11:51.097Z,94.70
2019-04-28T01:14:21.612Z,94.90
2019-04-28T01:16:54.713Z,94.40
2019-04-28T01:19:34.066Z,93.40
2019-04-28T01:22:10.635Z,93.20
2019-04-28T01:24:40.053Z,93.40
2019-04-28T01:27:27.141Z,93.30
2019-04-28T01:30:07.597Z,93.30
2019-04-28T01:32:34.354Z,93.20
2019-04-28T01:35:03.954Z,93.00
2019-04-28T01:37:32.729Z,92.90
2019-04-28T01:40:01.776Z,92.80
2019-04-28T01:42:31.329Z,92.40
2019-04-28T01:45:00.979Z,92.30
2019-04-28T01:47:30.679Z,92.50
2019-04-28T01:50:00.208Z,92.50
2019-04-28T01:52:30.664Z,92.40
2019-04-28T01:55:00.440Z,92.50
2019-04-28T01:57:29.933Z,92.50
2019-04-28T01:59:59.943Z,92.50
2019-04-28T02:02:29.977Z,92.40
2019-04-28T02:04:59.871Z,92.30
2019-04-28T02:07:30.648Z,92.40
2019-04-28T02:10:00.745Z,92.40
2019-04-28T02:12:30.427Z,92.30
2019-04-28T02:15:00.969Z,92.30
2019-04-28T02:17:30.654Z,92.20
2019-04-28T02:20:00.867Z,92.00
2019-04-28T02:22:32.294Z,92.10
2019-04-28T02:25:01.607Z,92.10
2019-04-28T02:27:31.359Z,91.90
2019-04-28T02:30:00.455Z,91.90
2019-04-28T02:32:30.932Z,91.70
2019-04-28T02:35:01.393Z,91.90
2019-04-28T02:37:30.894Z,91.30
2019-04-28T02:40:03.125Z,91.60
2019-04-28T02:42:31.367Z,91.60
2019-04-28T02:45:00.938Z,91.50
2019-04-28T02:47:33.730Z,91.60
2019-04-28T02:50:02.004Z,91.20
2019-04-28T02:52:51.534Z,91.30
2019-04-28T02:55:21.330Z,91.50
2019-04-28T02:57:51.719Z,91.60
2019-04-28T03:00:21.646Z,91.60
2019-04-28T03:02:51.471Z,91.60
2019-04-28T03:05:21.682Z,92.30
2019-04-28T03:07:51.769Z,93.50
2019-04-28T03:10:21.612Z,92.90
2019-04-28T03:12:51.884Z,93.00
2019-04-28T03:15:20.926Z,92.50
2019-04-28T03:17:52.575Z,93.10
2019-04-28T03:20:21.129Z,92.30
2019-04-28T03:22:51.187Z,92.60
2019-04-28T03:25:40.756Z,92.80
2019-04-28T03:28:30.774Z,92.70
2019-04-28T03:31:48.154Z,93.30
2019-04-28T03:33:53.662Z,92.80
2019-04-28T03:36:17.710Z,92.50
2019-04-28T03:38:46.778Z,92.80
2019-04-28T03:41:15.836Z,92.90
2019-04-28T03:43:44.675Z,92.80
2019-04-28T03:46:20.960Z,92.50
2019-04-28T03:48:50.922Z,92.30
2019-04-28T03:51:21.186Z,91.90
2019-04-28T03:53:50.770Z,92.50
2019-04-28T03:56:20.964Z,91.90
2019-04-28T03:58:50.537Z,91.80
2019-04-28T04:01:20.790Z,91.90
2019-04-28T04:03:51.519Z,91.90
2019-04-28T04:06:22.633Z,91.70
2019-04-28T04:08:51.098Z,91.50
2019-04-28T04:11:21.641Z,91.90
2019-04-28T04:13:52.260Z,91.60
2019-04-28T04:16:30.792Z,92.00
2019-04-28T04:19:20.343Z,92.10
2019-04-28T04:21:50.542Z,91.90
2019-04-28T04:24:40.351Z,91.90
2019-04-28T04:27:10.688Z,91.50
2019-04-28T04:29:41.167Z,92.00
2019-04-28T04:32:20.531Z,91.90
2019-04-28T04:34:41.049Z,91.70
2019-04-28T04:37:12.245Z,91.80
2019-04-28T04:39:40.806Z,92.20
2019-04-28T04:42:10.498Z,91.90
2019-04-28T04:44:41.478Z,91.90
2019-04-28T04:47:10.892Z,91.70
2019-04-28T04:49:40.551Z,91.60
2019-04-28T04:52:10.479Z,91.60
2019-04-28T04:54:40.108Z,91.40
2019-04-28T04:57:11.112Z,91.60
2019-04-28T04:59:40.242Z,91.60
2019-04-28T05:02:19.116Z,91.40
2019-04-28T05:04:46.176Z,91.00
2019-04-28T05:07:15.001Z,91.00
2019-04-28T05:09:43.806Z,91.00
2019-04-28T05:12:12.697Z,90.90
2019-04-28T05:14:41.881Z,90.60
2019-04-28T05:17:10.669Z,90.70
2019-04-28T05:19:40.215Z,91.00
2019-04-28T05:22:10.241Z,90.90
2019-04-28T05:27:27.902Z,90.90
2019-04-28T05:30:01.001Z,91.10
2019-04-28T05:32:40.186Z,91.10
2019-04-28T05:35:00.017Z,91.30
2019-04-28T05:37:29.927Z,91.40
2019-04-28T05:40:00.877Z,91.40
2019-04-28T05:42:30.231Z,91.10
2019-04-28T05:44:59.983Z,90.40
2019-04-28T05:47:30.576Z,90.50
2019-04-28T05:50:13.116Z,90.70
2019-04-28T05:53:00.600Z,90.40
2019-04-28T05:55:33.979Z,90.50
2019-04-28T05:58:07.482Z,90.40
2019-04-28T06:00:50.249Z,91.10
2019-04-28T06:03:26.967Z,91.30
2019-04-28T06:05:57.116Z,90.90
2019-04-28T06:08:40.819Z,90.70
2019-04-28T06:11:27.637Z,90.60
2019-04-28T06:13:56.458Z,90.00
2019-04-28T06:16:25.340Z,90.20
2019-04-28T06:18:54.312Z,89.60
2019-04-28T06:21:23.631Z,89.80
2019-04-28T06:23:52.509Z,89.40
2019-04-28T06:26:40.863Z,89.40
2019-04-28T06:29:09.841Z,89.40
2019-04-28T06:31:38.901Z,89.30
2019-04-28T06:34:07.875Z,90.30
2019-04-28T06:36:36.931Z,91.10
2019-04-28T06:39:07.270Z,90.30
2019-04-28T06:41:36.161Z,90.20
2019-04-28T06:44:05.038Z,90.60
2019-04-28T06:46:33.919Z,90.40
2019-04-28T06:49:02.806Z,90.40
2019-04-28T06:51:32.936Z,90.40
2019-04-28T06:54:01.957Z,90.10
2019-04-28T06:56:30.971Z,90.30
2019-04-28T06:58:59.934Z,90.40
2019-04-28T07:01:28.781Z,90.90
2019-04-28T07:03:57.873Z,91.80
2019-04-28T07:06:26.875Z,92.20
2019-04-28T07:08:55.794Z,91.90
2019-04-28T07:11:24.600Z,92.10
2019-04-28T07:13:53.857Z,92.60
2019-04-28T07:16:22.731Z,92.60
2019-04-28T07:18:54.242Z,92.00
2019-04-28T07:21:27.752Z,91.80
2019-04-28T07:23:56.678Z,91.50
2019-04-28T07:26:25.807Z,92.10
2019-04-28T07:29:12.091Z,92.70
2019-04-28T07:31:41.195Z,93.60
2019-04-28T07:34:10.409Z,94.50
2019-04-28T07:36:39.442Z,93.30
2019-04-28T07:39:08.495Z,93.60
2019-04-28T07:41:37.745Z,93.70
2019-04-28T07:44:06.784Z,92.50
2019-04-28T07:46:35.596Z,92.70
2019-04-28T07:49:04.732Z,92.50
2019-04-28T07:51:37.986Z,93.00
2019-04-28T07:54:08.687Z,93.30
2019-04-28T07:56:37.895Z,93.60
2019-04-28T07:59:10.134Z,94.40
2019-04-28T08:01:39.077Z,94.90
2019-04-28T08:04:08.212Z,95.10
2019-04-28T08:06:37.155Z,94.70
2019-04-28T08:09:08.564Z,94.60
2019-04-28T08:11:37.529Z,94.20
2019-04-28T08:14:08.313Z,93.80
2019-04-28T08:16:37.203Z,94.40
2019-04-28T08:19:06.202Z,93.90
2019-04-28T08:21:35.267Z,94.50
2019-04-28T08:24:04.300Z,94.60
2019-04-28T08:26:33.177Z,94.60
2019-04-28T08:29:17.288Z,94.50
2019-04-28T08:31:47.816Z,94.00
2019-04-28T08:34:18.497Z,94.30
2019-04-28T08:36:47.393Z,94.60
2019-04-28T08:39:16.371Z,94.70
2019-04-28T08:41:45.402Z,93.50
2019-04-28T08:44:14.417Z,94.00
2019-04-28T08:46:43.388Z,93.30
2019-04-28T08:49:12.482Z,93.20
2019-04-28T08:51:41.335Z,92.20
2019-04-28T08:54:10.388Z,93.50
2019-04-28T08:56:39.705Z,93.50
2019-04-28T08:59:08.528Z,92.80
2019-04-28T09:01:38.169Z,93.40
2019-04-28T09:04:15.063Z,92.90
2019-04-28T09:06:37.824Z,92.70
2019-04-28T09:09:13.730Z,92.60
2019-04-28T09:11:42.673Z,93.80
2019-04-28T09:14:14.364Z,92.80
2019-04-28T09:16:43.410Z,92.10
2019-04-28T09:19:12.227Z,92.30
2019-04-28T09:21:41.116Z,91.90
2019-04-28T09:24:09.999Z,91.90
2019-04-28T09:26:38.981Z,89.50
2019-04-28T09:29:24.474Z,89.60
2019-04-28T09:31:53.451Z,90.00
2019-04-28T09:34:28.435Z,89.90
2019-04-28T09:36:52.888Z,90.70
2019-04-28T09:39:23.601Z,89.90
2019-04-28T09:42:10.785Z,88.00
2019-04-28T09:44:39.882Z,88.70
2019-04-28T09:47:08.946Z,90.50
2019-04-28T09:49:38.462Z,89.30
2019-04-28T09:52:07.381Z,90.10
2019-04-28T09:54:36.444Z,89.40
2019-04-28T09:57:06.406Z,89.40
2019-04-28T09:59:35.431Z,89.50
2019-04-28T10:02:04.448Z,90.20
2019-04-28T10:04:41.459Z,86.60
2019-04-28T10:07:03.881Z,85.60
2019-04-28T10:09:32.912Z,85.90
2019-04-28T10:12:02.220Z,85.70
2019-04-28T10:14:31.154Z,82.70
2019-04-28T10:17:00.264Z,85.00
2019-04-28T10:19:29.464Z,86.70
2019-04-28T10:21:58.502Z,85.90
2019-04-28T10:24:34.939Z,84.70
2019-04-28T10:27:04.673Z,77.10
2019-04-28T10:30:09.740Z,77.10
2019-04-28T10:32:39.929Z,73.60
2019-04-28T10:35:09.102Z,69.30
2019-04-28T10:37:38.380Z,73.80
2019-04-28T10:40:13.333Z,67.80
2019-04-28T10:42:42.426Z,73.50
2019-04-28T10:45:13.037Z,75.90
2019-04-28T10:47:41.979Z,70.50
2019-04-28T10:50:10.958Z,73.50
2019-04-28T10:52:39.831Z,67.80
2019-04-28T10:55:09.673Z,63.00
2019-04-28T10:57:38.627Z,63.70
2019-04-28T11:00:08.878Z,66.20
2019-04-28T11:02:39.468Z,66.40
2019-04-28T11:05:10.139Z,65.20
2019-04-28T11:07:39.202Z,71.30
2019-04-28T11:10:10.303Z,66.90
2019-04-28T11:12:39.233Z,66.60
2019-04-28T11:15:10.271Z,62.50
2019-04-28T11:17:39.565Z,65.10
2019-04-28T11:20:08.581Z,71.00
2019-04-28T11:22:37.546Z,67.80
2019-04-28T11:25:07.095Z,67.90
2019-04-28T11:27:35.950Z,68.30
2019-04-28T11:30:07.741Z,70.90
2019-04-28T11:32:37.847Z,70.10
2019-04-28T11:35:23.829Z,70.00
2019-04-28T11:37:52.883Z,70.80
2019-04-28T11:40:22.049Z,70.10
2019-04-28T11:42:50.932Z,71.20
2019-04-28T11:45:20.465Z,70.70
2019-04-28T11:47:49.639Z,69.80
2019-04-28T11:50:18.618Z,71.70
2019-04-28T11:52:47.604Z,73.30
2019-04-28T11:55:16.521Z,73.70
2019-04-28T11:57:45.486Z,71.40
2019-04-28T12:00:16.185Z,70.20
2019-04-28T12:02:45.184Z,71.70
2019-04-28T12:05:14.304Z,72.50
2019-04-28T12:07:43.238Z,74.10
2019-04-28T12:10:13.876Z,74.30
2019-04-28T12:13:00.528Z,73.90
2019-04-28T12:15:34.474Z,72.70
2019-04-28T12:18:05.271Z,72.20
2019-04-28T12:20:37.050Z,73.50
2019-04-28T12:23:06.132Z,74.00
2019-04-28T12:25:35.175Z,73.60
2019-04-28T12:28:04.083Z,70.70
2019-04-28T12:30:33.139Z,70.60
2019-04-28T12:33:02.112Z,70.20
2019-04-28T12:35:30.997Z,68.70
2019-04-28T12:37:59.927Z,66.00
2019-04-28T12:40:28.971Z,66.10
2019-04-28T12:42:57.902Z,63.70
2019-04-28T12:45:34.832Z,64.10
2019-04-28T12:47:57.503Z,62.80
2019-04-28T12:50:33.701Z,59.90
2019-04-28T12:53:02.804Z,58.00
2019-04-28T12:55:34.619Z,58.20
2019-04-28T12:58:04.720Z,57.90
2019-04-28T13:00:53.684Z,56.50
2019-04-28T13:03:26.644Z,51.50
2019-04-28T13:06:03.745Z,51.30
2019-04-28T13:08:47.125Z,53.90
2019-04-28T13:11:16.345Z,53.70
2019-04-28T13:13:46.883Z,56.50
2019-04-28T13:16:15.958Z,55.90
2019-04-28T13:18:44.987Z,56.00
2019-04-28T13:21:13.947Z,57.20
2019-04-28T13:23:42.931Z,57.40
2019-04-28T13:26:11.873Z,58.70
2019-04-28T13:28:40.853Z,59.40
2019-04-28T13:31:09.773Z,59.00
2019-04-28T13:33:53.670Z,61.00
2019-04-28T13:36:15.123Z,63.20
2019-04-28T13:38:39.888Z,63.60
2019-04-28T13:41:09.127Z,61.90
2019-04-28T13:43:38.244Z,62.50
2019-04-28T13:46:07.259Z,64.70
2019-04-28T13:48:36.276Z,64.40
2019-04-28T13:51:05.373Z,65.30
2019-04-28T13:53:34.461Z,66.80
2019-04-28T13:56:04.664Z,67.20
2019-04-28T13:58:34.491Z,69.00
2019-04-28T14:01:23.852Z,69.30
2019-04-28T14:04:06.642Z,67.70
2019-04-28T14:06:37.314Z,67.90
2019-04-28T14:09:08.330Z,68.50
2019-04-28T14:11:37.509Z,71.30
2019-04-28T14:14:09.304Z,73.60
2019-04-28T14:16:38.360Z,74.60
2019-04-28T14:19:07.516Z,76.40
2019-04-28T14:21:36.570Z,76.70
2019-04-28T14:24:05.618Z,80.80
2019-04-28T14:26:34.524Z,76.30
2019-04-28T14:29:03.670Z,75.50
2019-04-28T14:31:32.643Z,78.10
2019-04-28T14:34:01.504Z,77.60
2019-04-28T14:36:41.460Z,75.50
2019-04-28T14:39:01.242Z,76.30
2019-04-28T14:41:34.046Z,72.60
2019-04-28T14:44:02.853Z,73.30
2019-04-28T14:46:31.714Z,72.70
2019-04-28T14:49:00.688Z,73.00
2019-04-28T14:51:29.836Z,73.50
2019-04-28T14:53:58.785Z,74.80
2019-04-28T14:56:27.751Z,74.50
2019-04-28T14:58:56.720Z,73.60
2019-04-28T15:01:30.155Z,71.60
2019-04-28T15:04:00.721Z,72.40
2019-04-28T15:06:55.548Z,72.20
2019-04-28T15:09:33.077Z,72.30
2019-04-28T15:12:03.739Z,72.80
2019-04-28T15:14:32.690Z,73.80
2019-04-28T15:17:01.683Z,75.30
2019-04-28T15:19:30.512Z,76.40
2019-04-28T15:21:59.615Z,76.70
2019-04-28T15:24:28.604Z,79.00
2019-04-28T15:26:57.664Z,79.20
2019-04-28T15:29:26.633Z,77.40
2019-04-28T15:31:55.766Z,78.30
2019-04-28T15:34:24.895Z,78.80
2019-04-28T15:36:55.094Z,79.60
2019-04-28T15:39:25.871Z,78.10
2019-04-28T15:41:54.998Z,78.80
2019-04-28T15:44:24.380Z,77.60
2019-04-28T15:46:53.442Z,78.20
2019-04-28T15:49:22.512Z,78.00
2019-04-28T15:51:51.812Z,76.40
2019-04-28T15:54:20.876Z,77.50
2019-04-28T15:56:50.499Z,78.20
2019-04-28T15:59:19.598Z,74.80
2019-04-28T16:01:48.611Z,78.40
2019-04-28T16:04:18.395Z,76.70
2019-04-28T16:06:48.914Z,76.30
2019-04-28T16:09:18.540Z,76.50
2019-04-28T16:11:47.859Z,76.00
2019-04-28T16:14:16.811Z,76.20
2019-04-28T16:16:45.759Z,77.60
2019-04-28T16:19:14.778Z,78.90
2019-04-28T16:21:43.728Z,79.00
2019-04-28T16:24:12.777Z,79.40
2019-04-28T16:26:42.039Z,80.20
2019-04-28T16:29:11.325Z,81.30
2019-04-28T16:31:40.566Z,76.00
2019-04-28T16:34:09.708Z,78.30
2019-04-28T16:36:38.957Z,77.10
2019-04-28T16:39:08.396Z,76.30
2019-04-28T16:41:37.477Z,75.50
2019-04-28T16:44:09.978Z,74.60
2019-04-28T16:46:38.840Z,75.30
2019-04-28T16:49:08.028Z,75.10
2019-04-28T16:51:37.066Z,75.40
2019-04-28T16:54:06.003Z,76.80
2019-04-28T16:56:36.597Z,75.90
2019-04-28T16:59:07.239Z,78.20
2019-04-28T17:01:49.966Z,78.90
2019-04-28T17:04:19.089Z,79.70
2019-04-28T17:06:50.953Z,81.50
2019-04-28T17:09:20.547Z,82.60
2019-04-28T17:11:49.907Z,81.90
2019-04-28T17:14:18.953Z,81.50
2019-04-28T17:16:47.960Z,80.70
2019-04-28T17:19:18.336Z,79.00
2019-04-28T17:21:47.417Z,80.10
2019-04-28T17:24:16.603Z,81.10
2019-04-28T17:26:45.815Z,80.60
2019-04-28T17:29:14.790Z,80.40
2019-04-28T17:31:43.826Z,81.10
2019-04-28T17:34:12.784Z,80.90
2019-04-28T17:36:41.867Z,81.60
2019-04-28T17:39:12.445Z,82.20
2019-04-28T17:41:41.432Z,82.10
2019-04-28T17:44:10.516Z,81.70
2019-04-28T17:46:39.598Z,82.10
2019-04-28T17:49:08.765Z,82.20
2019-04-28T17:51:38.122Z,82.90
2019-04-28T17:54:07.198Z,82.60
2019-04-28T17:56:36.368Z,83.10
2019-04-28T17:59:05.420Z,82.50
2019-04-28T18:01:44.898Z,83.90
2019-04-28T18:04:15.942Z,84.20
2019-04-28T18:06:46.531Z,84.00
2019-04-28T18:09:16.821Z,85.20
2019-04-28T18:11:45.829Z,86.10
2019-04-28T18:14:14.811Z,85.50
2019-04-28T18:16:51.034Z,86.10
2019-04-28T18:19:21.838Z,86.00
2019-04-28T18:21:50.878Z,85.00
2019-04-28T18:24:19.859Z,84.20
2019-04-28T18:26:48.914Z,86.90
2019-04-28T18:29:18.217Z,84.40
2019-04-28T18:32:00.899Z,83.60
2019-04-28T18:34:31.445Z,83.00
2019-04-28T18:37:02.330Z,83.70
2019-04-28T18:39:49.448Z,84.40
2019-04-28T18:42:40.775Z,83.50
2019-04-28T18:45:09.936Z,83.60
2019-04-28T18:47:38.968Z,83.50
2019-04-28T18:50:08.042Z,84.40
2019-04-28T18:52:37.060Z,84.80
2019-04-28T18:55:06.859Z,84.60
2019-04-28T18:57:35.833Z,85.50
2019-04-28T19:00:06.317Z,85.90
2019-04-28T19:02:39.952Z,85.10
2019-04-28T19:05:10.540Z,86.80
2019-04-28T19:07:50.457Z,85.10
2019-04-28T19:10:21.073Z,85.70
2019-04-28T19:13:00.975Z,85.90
2019-04-28T19:15:38.965Z,86.30
2019-04-28T19:20:54.573Z,85.50
2019-04-28T19:23:23.537Z,86.10
2019-04-28T19:25:52.708Z,86.00
2019-04-28T19:28:21.624Z,85.90
2019-04-28T19:30:50.864Z,86.60
2019-04-28T19:33:19.941Z,85.90
2019-04-28T19:35:50.696Z,87.50
2019-04-28T19:38:19.967Z,87.80
2019-04-28T19:40:49.078Z,87.60
2019-04-28T19:43:18.382Z,87.00
2019-04-28T19:45:48.783Z,87.40
2019-04-28T19:48:17.765Z,87.90
2019-04-28T19:50:46.698Z,88.60
2019-04-28T19:53:15.621Z,88.80
2019-04-28T19:55:55.350Z,89.10
2019-04-28T19:58:25.945Z,90.60
2019-04-28T20:00:56.562Z,90.30
2019-04-28T20:03:25.390Z,90.40
2019-04-28T20:05:54.589Z,90.30
2019-04-28T20:08:23.499Z,90.20
2019-04-28T20:10:52.601Z,91.00
2019-04-28T20:13:21.830Z,90.60
2019-04-28T20:15:50.806Z,91.10
2019-04-28T20:18:19.691Z,90.80
2019-04-28T20:20:48.824Z,90.60
2019-04-28T20:23:20.461Z,90.70
2019-04-28T20:25:49.513Z,91.40
2019-04-28T20:28:21.502Z,91.70
2019-04-28T20:30:50.620Z,92.30
2019-04-28T20:33:19.670Z,92.10
2019-04-28T20:35:50.542Z,92.40
2019-04-28T20:38:31.704Z,92.20
2019-04-28T20:41:08.145Z,92.50
2019-04-28T20:43:37.124Z,92.90
2019-04-28T20:46:06.896Z,92.60
2019-04-28T20:48:35.838Z,92.50
2019-04-28T20:51:04.981Z,91.90
2019-04-28T20:53:36.521Z,91.90
2019-04-28T20:56:07.197Z,92.10
2019-04-28T20:58:36.191Z,92.30
2019-04-28T21:01:05.134Z,92.60
2019-04-28T21:03:34.055Z,92.60
2019-04-28T21:06:03.018Z,91.80
2019-04-28T21:08:32.039Z,91.80
2019-04-28T21:11:00.959Z,92.10
2019-04-28T21:13:29.923Z,92.10
2019-04-28T21:15:58.817Z,91.90
2019-04-28T21:18:27.839Z,91.90
2019-04-28T21:20:56.699Z,91.50
2019-04-28T21:23:25.759Z,91.80
2019-04-28T21:25:54.770Z,92.00
2019-04-28T21:28:23.767Z,91.90
2019-04-28T21:30:52.707Z,91.80
2019-04-28T21:33:21.701Z,91.60
2019-04-28T21:35:50.827Z,91.60
2019-04-28T21:38:19.896Z,91.70
2019-04-28T21:40:48.892Z,91.90
2019-04-28T21:43:22.643Z,92.40
2019-04-28T21:45:53.403Z,92.70
2019-04-28T21:48:40.758Z,92.80
2019-04-28T21:51:12.070Z,92.90
2019-04-28T21:53:40.874Z,93.40
2019-04-28T21:56:09.819Z,93.30
2019-04-28T21:58:38.882Z,93.30
2019-04-28T22:01:08.516Z,93.70
2019-04-28T22:03:37.587Z,93.20
2019-04-28T22:06:06.598Z,93.10
2019-04-28T22:08:35.692Z,93.50
2019-04-28T22:11:04.699Z,93.70
2019-04-28T22:13:33.647Z,93.90
2019-04-28T22:16:02.798Z,93.70
2019-04-28T22:18:34.731Z,93.80
2019-04-28T22:21:03.665Z,93.50
2019-04-28T22:23:43.525Z,94.20
2019-04-28T22:26:14.317Z,93.70
2019-04-28T22:28:43.415Z,93.80
2019-04-28T22:31:12.456Z,93.60
2019-04-28T22:33:41.377Z,93.90
2019-04-28T22:36:10.359Z,93.80
2019-04-28T22:38:40.196Z,93.70
2019-04-28T22:41:12.231Z,93.80
2019-04-28T22:43:41.124Z,93.90
2019-04-28T22:46:10.035Z,93.50
2019-04-28T22:48:39.227Z,93.80
2019-04-28T22:51:08.221Z,94.00
2019-04-28T22:53:38.149Z,93.90
2019-04-28T22:56:11.217Z,94.40
2019-04-28T22:58:41.706Z,94.80
2019-04-28T23:01:12.951Z,94.50
2019-04-28T23:03:46.679Z,94.70
2019-04-28T23:06:15.667Z,94.60
2019-04-28T23:08:44.754Z,95.00
2019-04-28T23:11:13.906Z,95.20
2019-04-28T23:13:42.929Z,95.20
2019-04-28T23:16:12.021Z,94.90
2019-04-28T23:18:44.211Z,95.10
2019-04-28T23:21:16.384Z,94.90
2019-04-28T23:23:46.358Z,95.10
2019-04-28T23:26:15.331Z,94.90
2019-04-28T23:28:44.341Z,94.90
2019-04-28T23:31:13.463Z,95.00
2019-04-28T23:33:42.378Z,95.20
2019-04-28T23:36:11.469Z,95.50
2019-04-28T23:38:42.488Z,95.70
2019-04-28T23:41:27.544Z,95.50
2019-04-28T23:43:56.641Z,95.50
2019-04-28T23:46:27.138Z,95.50
2019-04-28T23:48:56.240Z,95.50
2019-04-28T23:51:36.081Z,95.40
2019-04-28T23:54:06.878Z,95.80
2019-04-28T23:56:35.926Z,96.20
2019-04-28T23:59:04.986Z,96.50
